createdAt,value
2024-03-12T00:01:42.307Z,97520.53
2024-03-12T00:04:11.158Z,97524.31
2024-03-12T00:06:43.366Z,97529.31
2024-03-12T00:09:11.924Z,97534.09
2024-03-12T00:11:40.406Z,97538.28
2024-03-12T00:14:10.192Z,97541.91
2024-03-12T00:16:42.072Z,97539.47
2024-03-12T00:19:11.627Z,97536.06
2024-03-12T00:21:40.250Z,97535.03
2024-03-12T00:24:10.512Z,97544.66
2024-03-12T00:26:39.664Z,97548.66
2024-03-12T00:29:10.511Z,97551.91
2024-03-12T00:31:39.848Z,97553.50
2024-03-12T00:34:11.881Z,97560.97
2024-03-12T00:36:43.088Z,97558.38
2024-03-12T00:39:12.533Z,97561.59
2024-03-12T00:41:40.943Z,97570.78
2024-03-12T00:44:11.083Z,97573.38
2024-03-12T00:46:39.678Z,97567.13
2024-03-12T00:49:08.588Z,97571.16
2024-03-12T00:51:37.238Z,97576.00
2024-03-12T00:54:06.634Z,97568.97
2024-03-12T00:56:35.191Z,97577.34
2024-03-12T00:59:03.691Z,97583.22
2024-03-12T01:01:33.607Z,97585.81
2024-03-12T01:04:02.121Z,97583.22
2024-03-12T01:06:31.001Z,97582.00
2024-03-12T01:08:59.407Z,97586.63
2024-03-12T01:11:27.927Z,97583.22
2024-03-12T01:13:56.312Z,97584.94
2024-03-12T01:16:24.791Z,97578.53
2024-03-12T01:18:54.864Z,97580.72
2024-03-12T01:21:23.378Z,97585.72
2024-03-12T01:23:51.765Z,97581.91
2024-03-12T01:26:20.286Z,97581.09
2024-03-12T01:28:48.803Z,97585.13
2024-03-12T01:31:17.481Z,97589.91
2024-03-12T01:33:46.092Z,97587.50
2024-03-12T01:36:21.952Z,97582.47
2024-03-12T01:38:55.668Z,97581.66
2024-03-12T01:41:24.371Z,97587.06
2024-03-12T01:44:00.507Z,97585.81
2024-03-12T01:46:30.602Z,97585.63
2024-03-12T01:49:00.250Z,97593.66
2024-03-12T01:51:31.659Z,97592.66
2024-03-12T01:54:00.350Z,97595.06
2024-03-12T01:56:28.946Z,97594.25
2024-03-12T01:58:58.713Z,97598.66
2024-03-12T02:01:27.758Z,97591.84
2024-03-12T02:03:57.633Z,97591.22
2024-03-12T02:06:26.468Z,97593.00
2024-03-12T02:08:57.019Z,97594.84
2024-03-12T02:11:25.478Z,97590.59
2024-03-12T02:13:54.001Z,97594.84
2024-03-12T02:16:22.758Z,97590.59
2024-03-12T02:18:52.634Z,97584.59
2024-03-12T02:21:21.332Z,97586.19
2024-03-12T02:23:51.359Z,97592.56
2024-03-12T02:26:19.989Z,97591.78
2024-03-12T02:28:48.447Z,97590.41
2024-03-12T02:31:17.135Z,97591.97
2024-03-12T02:33:45.689Z,97600.75
2024-03-12T02:36:14.268Z,97599.97
2024-03-12T02:38:42.783Z,97597.38
2024-03-12T02:41:12.648Z,97595.75
2024-03-12T02:43:42.456Z,97595.69
2024-03-12T02:46:12.414Z,97601.13
2024-03-12T02:48:43.179Z,97604.66
2024-03-12T02:51:12.308Z,97599.56
2024-03-12T02:53:41.281Z,97597.94
2024-03-12T02:56:11.264Z,97600.97
2024-03-12T02:58:39.714Z,97599.34
2024-03-12T03:01:11.363Z,97599.84
2024-03-12T03:03:39.810Z,97598.47
2024-03-12T03:06:08.379Z,97594.25
2024-03-12T03:08:38.663Z,97593.63
2024-03-12T03:11:07.419Z,97596.06
2024-03-12T03:13:37.241Z,97596.84
2024-03-12T03:16:06.365Z,97591.63
2024-03-12T03:18:35.545Z,97601.72
2024-03-12T03:21:04.584Z,97606.13
2024-03-12T03:23:32.959Z,97602.69
2024-03-12T03:26:01.513Z,97606.66
2024-03-12T03:28:29.947Z,97605.47
2024-03-12T03:31:01.468Z,97608.28
2024-03-12T03:33:30.227Z,97606.66
2024-03-12T03:35:58.797Z,97603.06
2024-03-12T03:38:29.029Z,97603.25
2024-03-12T03:40:57.685Z,97606.66
2024-03-12T03:43:26.095Z,97609.66
2024-03-12T03:45:54.550Z,97612.84
2024-03-12T03:48:24.816Z,97610.91
2024-03-12T03:50:53.289Z,97616.81
2024-03-12T03:53:21.896Z,97620.25
2024-03-12T03:55:51.024Z,97616.47
2024-03-12T03:58:19.634Z,97621.31
2024-03-12T04:00:48.232Z,97635.69
2024-03-12T04:03:16.662Z,97646.13
2024-03-12T04:05:46.892Z,97647.31
2024-03-12T04:08:16.810Z,97641.66
2024-03-12T04:10:45.316Z,97648.66
2024-03-12T04:13:15.614Z,97648.47
2024-03-12T04:15:45.090Z,97653.31
2024-03-12T04:18:14.443Z,97646.66
2024-03-12T04:20:43.096Z,97648.47
2024-03-12T04:23:12.831Z,97648.91
2024-03-12T04:25:42.527Z,97646.13
2024-03-12T04:28:15.436Z,97650.16
2024-03-12T04:30:45.380Z,97654.38
2024-03-12T04:33:13.951Z,97654.19
2024-03-12T04:35:43.441Z,97665.03
2024-03-12T04:38:17.491Z,97673.69
2024-03-12T04:40:48.451Z,97664.69
2024-03-12T04:43:18.876Z,97664.69
2024-03-12T04:45:47.533Z,97668.84
2024-03-12T04:48:16.419Z,97674.69
2024-03-12T04:50:45.095Z,97680.50
2024-03-12T04:53:14.826Z,97680.50
2024-03-12T04:55:43.310Z,97678.72
2024-03-12T04:58:11.771Z,97674.13
2024-03-12T05:00:40.334Z,97689.59
2024-03-12T05:03:08.722Z,97687.16
2024-03-12T05:05:37.153Z,97693.53
2024-03-12T05:08:06.263Z,97690.94
2024-03-12T05:10:37.364Z,97698.59
2024-03-12T05:13:06.300Z,97700.38
2024-03-12T05:15:34.802Z,97706.03
2024-03-12T05:18:03.209Z,97704.25
2024-03-12T05:20:34.806Z,97713.66
2024-03-12T05:23:04.998Z,97718.88
2024-03-12T05:25:41.685Z,97720.66
2024-03-12T05:28:12.092Z,97725.69
2024-03-12T05:30:42.288Z,97733.88
2024-03-12T05:33:15.473Z,97735.31
2024-03-12T05:35:48.916Z,97736.94
2024-03-12T05:38:33.673Z,97741.94
2024-03-12T05:41:26.595Z,97734.94
2024-03-12T05:44:13.838Z,97744.56
2024-03-12T05:46:59.862Z,97747.38
2024-03-12T05:49:28.320Z,97749.97
2024-03-12T05:51:56.923Z,97750.78
2024-03-12T05:54:25.523Z,97756.97
2024-03-12T05:56:53.972Z,97756.78
2024-03-12T05:59:23.927Z,97761.22
2024-03-12T06:01:52.631Z,97767.41
2024-03-12T06:04:21.226Z,97767.03
2024-03-12T06:06:49.785Z,97768.66
2024-03-12T06:09:23.847Z,97768.84
2024-03-12T06:11:52.400Z,97774.25
2024-03-12T06:14:20.798Z,97782.44
2024-03-12T06:16:50.663Z,97777.03
2024-03-12T06:19:19.391Z,97781.25
2024-03-12T06:21:47.926Z,97788.25
2024-03-12T06:24:17.315Z,97782.44
2024-03-12T06:26:46.304Z,97791.84
2024-03-12T06:29:15.331Z,97793.47
2024-03-12T06:31:43.818Z,97794.28
2024-03-12T06:34:13.750Z,97807.31
2024-03-12T06:36:42.431Z,97808.31
2024-03-12T06:39:14.952Z,97803.44
2024-03-12T06:41:43.537Z,97804.06
2024-03-12T06:44:16.823Z,97814.31
2024-03-12T06:46:46.240Z,97817.53
2024-03-12T06:49:16.075Z,97815.31
2024-03-12T06:51:48.402Z,97820.00
2024-03-12T06:54:17.026Z,97829.59
2024-03-12T06:56:47.566Z,97833.84
2024-03-12T06:59:16.423Z,97838.47
2024-03-12T07:01:46.670Z,97839.94
2024-03-12T07:04:16.614Z,97837.69
2024-03-12T07:06:46.803Z,97841.09
2024-03-12T07:09:24.298Z,97845.53
2024-03-12T07:11:53.316Z,97847.13
2024-03-12T07:14:28.758Z,97850.75
2024-03-12T07:16:57.854Z,97854.94
2024-03-12T07:19:27.648Z,97854.94
2024-03-12T07:21:57.238Z,97854.94
2024-03-12T07:24:25.795Z,97851.97
2024-03-12T07:26:54.396Z,97860.59
2024-03-12T07:29:24.726Z,97869.00
2024-03-12T07:31:54.217Z,97868.63
2024-03-12T07:34:22.774Z,97872.66
2024-03-12T07:36:52.573Z,97876.09
2024-03-12T07:39:26.979Z,97870.88
2024-03-12T07:41:56.819Z,97879.31
2024-03-12T07:44:25.310Z,97882.91
2024-03-12T07:46:56.147Z,97880.94
2024-03-12T07:49:24.974Z,97880.31
2024-03-12T07:51:54.949Z,97887.50
2024-03-12T07:54:23.449Z,97890.75
2024-03-12T07:56:51.998Z,97887.78
2024-03-12T07:59:23.303Z,97900.44
2024-03-12T08:01:54.201Z,97902.06
2024-03-12T08:04:23.441Z,97902.31
2024-03-12T08:06:55.290Z,97909.69
2024-03-12T08:09:25.449Z,97908.34
2024-03-12T08:11:54.806Z,97910.94
2024-03-12T08:14:23.670Z,97918.78
2024-03-12T08:16:52.513Z,97923.63
2024-03-12T08:19:26.642Z,97916.25
2024-03-12T08:21:56.189Z,97922.13
2024-03-12T08:24:27.478Z,97924.16
2024-03-12T08:26:56.643Z,97930.03
2024-03-12T08:29:26.885Z,97921.19
2024-03-12T08:32:00.259Z,97925.28
2024-03-12T08:34:29.864Z,97920.13
2024-03-12T08:36:58.536Z,97929.75
2024-03-12T08:39:29.863Z,97935.13
2024-03-12T08:41:58.527Z,97932.19
2024-03-12T08:44:27.791Z,97939.66
2024-03-12T08:46:56.306Z,97941.25
2024-03-12T08:49:25.675Z,97952.13
2024-03-12T08:51:54.175Z,97950.63
2024-03-12T08:54:22.788Z,97954.66
2024-03-12T08:56:52.671Z,97966.16
2024-03-12T08:59:21.465Z,97961.75
2024-03-12T09:01:50.516Z,97962.22
2024-03-12T09:04:20.719Z,97963.09
2024-03-12T09:06:49.273Z,97969.34
2024-03-12T09:09:19.637Z,97975.34
2024-03-12T09:11:48.083Z,97978.16
2024-03-12T09:14:17.963Z,97977.50
2024-03-12T09:16:46.486Z,97985.69
2024-03-12T09:19:15.018Z,97982.28
2024-03-12T09:21:43.874Z,97985.16
2024-03-12T09:24:12.313Z,97997.13
2024-03-12T09:26:40.854Z,97995.06
2024-03-12T09:29:09.956Z,97997.69
2024-03-12T09:31:40.467Z,97996.13
2024-03-12T09:34:08.914Z,98004.50
2024-03-12T09:36:37.325Z,98003.16
2024-03-12T09:39:11.887Z,98008.72
2024-03-12T09:41:50.152Z,98013.59
2024-03-12T09:44:18.786Z,98019.91
2024-03-12T09:46:50.401Z,98016.66
2024-03-12T09:49:20.523Z,98020.59
2024-03-12T09:51:49.236Z,98024.03
2024-03-12T09:54:17.669Z,98027.28
2024-03-12T09:56:47.486Z,98034.47
2024-03-12T09:59:15.857Z,98030.06
2024-03-12T10:01:45.742Z,98034.09
2024-03-12T10:04:17.773Z,98034.09
2024-03-12T10:06:46.669Z,98026.19
2024-03-12T10:09:18.345Z,98031.06
2024-03-12T10:11:47.183Z,98024.66
2024-03-12T10:14:18.753Z,98037.53
2024-03-12T10:16:47.354Z,98029.59
2024-03-12T10:19:18.415Z,98032.41
2024-03-12T10:21:47.429Z,98028.06
2024-03-12T10:24:19.109Z,98026.50
2024-03-12T10:26:49.218Z,98029.22
2024-03-12T10:29:20.349Z,98027.31
2024-03-12T10:31:51.410Z,98038.94
2024-03-12T10:34:21.885Z,98032.47
2024-03-12T10:36:51.978Z,98038.34
2024-03-12T10:39:30.148Z,98041.63
2024-03-12T10:42:01.353Z,98047.16
2024-03-12T10:44:32.423Z,98040.91
2024-03-12T10:47:03.226Z,98050.00
2024-03-12T10:49:33.243Z,98044.59
2024-03-12T10:52:02.037Z,98040.44
2024-03-12T10:54:36.220Z,98040.81
2024-03-12T10:57:07.864Z,98045.59
2024-03-12T10:59:38.985Z,98052.44
2024-03-12T11:02:08.914Z,98056.41
2024-03-12T11:04:40.012Z,98047.31
2024-03-12T11:07:11.822Z,98063.53
2024-03-12T11:09:41.818Z,98061.19
2024-03-12T11:12:10.898Z,98071.38
2024-03-12T11:14:40.039Z,98069.59
2024-03-12T11:17:26.793Z,98076.25
2024-03-12T11:20:03.235Z,98069.75
2024-03-12T11:22:32.491Z,98085.34
2024-03-12T11:25:05.451Z,98074.44
2024-03-12T11:27:35.500Z,98081.47
2024-03-12T11:30:15.633Z,98076.06
2024-03-12T11:32:50.044Z,98079.50
2024-03-12T11:35:33.469Z,98075.88
2024-03-12T11:38:11.414Z,98078.13
2024-03-12T11:40:52.414Z,98068.59
2024-03-12T11:43:40.769Z,98074.44
2024-03-12T11:46:11.526Z,98085.41
2024-03-12T11:48:42.677Z,98073.38
2024-03-12T11:51:14.938Z,98079.03
2024-03-12T11:53:46.325Z,98076.22
2024-03-12T11:56:20.829Z,98080.72
2024-03-12T11:58:59.752Z,98087.22
2024-03-12T12:01:35.141Z,98090.13
2024-03-12T12:04:06.821Z,98091.75
2024-03-12T12:06:37.085Z,98088.84
2024-03-12T12:09:07.727Z,98092.44
2024-03-12T12:11:38.693Z,98092.34
2024-03-12T12:14:10.280Z,98082.34
2024-03-12T12:16:40.714Z,98086.59
2024-03-12T12:19:18.499Z,98085.41
2024-03-12T12:21:53.133Z,98082.28
2024-03-12T12:24:27.433Z,98084.53
2024-03-12T12:26:57.162Z,98089.75
2024-03-12T12:29:27.901Z,98086.78
2024-03-12T12:31:57.027Z,98076.88
2024-03-12T12:34:29.884Z,98080.47
2024-03-12T12:37:01.678Z,98091.75
2024-03-12T12:39:43.769Z,98084.44
2024-03-12T12:42:20.663Z,98076.41
2024-03-12T12:44:54.926Z,98079.66
2024-03-12T12:47:24.326Z,98074.25
2024-03-12T12:49:56.605Z,98074.91
2024-03-12T12:52:28.168Z,98067.59
2024-03-12T12:55:00.064Z,98071.31
2024-03-12T12:57:35.938Z,98073.91
2024-03-12T13:00:16.056Z,98076.69
2024-03-12T13:02:44.448Z,98077.69
2024-03-12T13:05:21.631Z,98075.72
2024-03-12T13:07:51.991Z,98076.97
2024-03-12T13:10:20.811Z,98078.31
2024-03-12T13:12:49.857Z,98074.81
2024-03-12T13:15:29.329Z,98074.81
2024-03-12T13:17:57.759Z,98075.97
2024-03-12T13:20:26.314Z,98071.63
2024-03-12T13:22:56.191Z,98069.59
2024-03-12T13:25:24.836Z,98067.34
2024-03-12T13:27:53.230Z,98077.50
2024-03-12T13:30:21.822Z,98063.75
2024-03-12T13:32:50.372Z,98072.19
2024-03-12T13:35:20.329Z,98071.56
2024-03-12T13:37:48.717Z,98072.91
2024-03-12T13:40:18.649Z,98074.97
2024-03-12T13:42:49.011Z,98071.44
2024-03-12T13:45:19.371Z,98068.16
2024-03-12T13:47:48.220Z,98068.84
2024-03-12T13:50:16.841Z,98066.50
2024-03-12T13:52:45.180Z,98059.94
2024-03-12T13:55:14.671Z,98063.63
2024-03-12T13:57:44.698Z,98063.72
2024-03-12T14:00:16.688Z,98058.78
2024-03-12T14:02:45.634Z,98061.66
2024-03-12T14:05:14.064Z,98053.13
2024-03-12T14:07:43.522Z,98064.53
2024-03-12T14:10:12.914Z,98057.78
2024-03-12T14:12:41.647Z,98052.75
2024-03-12T14:15:12.775Z,98048.69
2024-03-12T14:17:41.255Z,98043.28
2024-03-12T14:20:15.338Z,98045.28
2024-03-12T14:22:45.522Z,98051.75
2024-03-12T14:25:14.340Z,98041.31
2024-03-12T14:27:42.926Z,98049.31
2024-03-12T14:30:14.700Z,98046.09
2024-03-12T14:32:43.150Z,98041.50
2024-03-12T14:35:11.959Z,98040.06
2024-03-12T14:37:41.566Z,98042.66
2024-03-12T14:40:11.137Z,98041.31
2024-03-12T14:42:43.758Z,98039.31
2024-03-12T14:45:14.882Z,98046.88
2024-03-12T14:47:43.330Z,98038.44
2024-03-12T14:50:14.184Z,98032.41
2024-03-12T14:52:43.378Z,98034.84
2024-03-12T14:55:12.157Z,98034.19
2024-03-12T14:57:40.606Z,98038.88
2024-03-12T15:00:11.617Z,98033.94
2024-03-12T15:02:41.519Z,98037.38
2024-03-12T15:05:12.525Z,98027.53
2024-03-12T15:07:42.095Z,98020.31
2024-03-12T15:10:11.994Z,98026.34
2024-03-12T15:12:42.252Z,98022.75
2024-03-12T15:15:13.063Z,98021.50
2024-03-12T15:17:46.270Z,98031.94
2024-03-12T15:20:16.792Z,98022.69
2024-03-12T15:22:46.800Z,98028.72
2024-03-12T15:25:20.065Z,98031.94
2024-03-12T15:27:50.179Z,98022.75
2024-03-12T15:30:19.178Z,98020.53
2024-03-12T15:32:49.880Z,98027.63
2024-03-12T15:35:19.659Z,98020.44
2024-03-12T15:37:48.049Z,98017.81
2024-03-12T15:40:19.496Z,98021.22
2024-03-12T15:42:48.158Z,98023.66
2024-03-12T15:45:17.283Z,98018.59
2024-03-12T15:47:47.052Z,98017.00
2024-03-12T15:50:17.711Z,98019.78
2024-03-12T15:52:46.637Z,98024.03
2024-03-12T15:55:15.729Z,98020.44
2024-03-12T15:57:45.979Z,98021.66
2024-03-12T16:00:16.168Z,98025.53
2024-03-12T16:02:45.173Z,98025.16
2024-03-12T16:05:13.852Z,98025.09
2024-03-12T16:07:43.657Z,98028.44
2024-03-12T16:10:12.614Z,98025.66
2024-03-12T16:12:45.631Z,98031.84
2024-03-12T16:15:15.463Z,98030.44
2024-03-12T16:17:44.243Z,98021.13
2024-03-12T16:20:15.093Z,98030.22
2024-03-12T16:22:46.788Z,98028.44
2024-03-12T16:25:15.701Z,98020.69
2024-03-12T16:27:45.164Z,98021.13
2024-03-12T16:30:16.063Z,98026.34
2024-03-12T16:32:45.889Z,98029.53
2024-03-12T16:35:16.084Z,98025.09
2024-03-12T16:37:46.442Z,98024.75
2024-03-12T16:40:16.153Z,98030.31
2024-03-12T16:42:44.925Z,98030.50
2024-03-12T16:45:14.411Z,98026.91
2024-03-12T16:47:43.935Z,98026.28
2024-03-12T16:50:16.247Z,98026.81
2024-03-12T16:52:47.641Z,98034.56
2024-03-12T16:55:17.402Z,98024.75
2024-03-12T16:57:46.608Z,98028.88
2024-03-12T17:00:16.876Z,98033.75
2024-03-12T17:02:46.628Z,98030.88
2024-03-12T17:05:20.024Z,98028.44
2024-03-12T17:07:52.511Z,98023.78
2024-03-12T17:10:23.919Z,98026.56
2024-03-12T17:12:54.022Z,98031.59
2024-03-12T17:15:24.506Z,98021.16
2024-03-12T17:17:53.523Z,98023.50
2024-03-12T17:20:22.223Z,98024.47
2024-03-12T17:22:52.783Z,98024.66
2024-03-12T17:25:21.970Z,98032.06
2024-03-12T17:27:53.213Z,98021.69
2024-03-12T17:30:25.686Z,98021.31
2024-03-12T17:32:56.276Z,98024.94
2024-03-12T17:35:25.858Z,98026.75
2024-03-12T17:38:02.203Z,98024.94
2024-03-12T17:40:33.930Z,98026.91
2024-03-12T17:43:03.450Z,98028.91
2024-03-12T17:45:32.974Z,98023.69
2024-03-12T17:48:04.199Z,98026.66
2024-03-12T17:50:34.118Z,98029.25
2024-03-12T17:53:07.424Z,98033.38
2024-03-12T17:55:37.402Z,98036.34
2024-03-12T17:58:07.260Z,98035.53
2024-03-12T18:00:36.899Z,98029.50
2024-03-12T18:03:06.540Z,98029.69
2024-03-12T18:05:35.414Z,98031.31
2024-03-12T18:08:08.665Z,98022.69
2024-03-12T18:10:38.690Z,98033.47
2024-03-12T18:13:08.828Z,98027.25
2024-03-12T18:15:37.383Z,98035.53
2024-03-12T18:18:07.209Z,98023.72
2024-03-12T18:20:38.573Z,98030.41
2024-03-12T18:23:08.337Z,98026.69
2024-03-12T18:25:38.327Z,98033.44
2024-03-12T18:28:08.818Z,98025.63
2024-03-12T18:30:37.746Z,98030.72
2024-03-12T18:33:06.884Z,98022.09
2024-03-12T18:35:35.373Z,98027.00
2024-03-12T18:38:06.712Z,98027.66
2024-03-12T18:40:36.680Z,98024.69
2024-03-12T18:43:06.795Z,98019.03
2024-03-12T18:45:35.616Z,98021.78
2024-03-12T18:48:06.798Z,98025.41
2024-03-12T18:50:35.720Z,98023.13
2024-03-12T18:53:07.096Z,98016.13
2024-03-12T18:55:38.156Z,98016.56
2024-03-12T18:58:07.998Z,98019.38
2024-03-12T19:00:37.619Z,98009.31
2024-03-12T19:03:15.770Z,98009.81
2024-03-12T19:05:46.462Z,98014.06
2024-03-12T19:08:16.231Z,98005.53
2024-03-12T19:10:46.981Z,98005.53
2024-03-12T19:13:17.246Z,98004.88
2024-03-12T19:15:46.503Z,98004.88
2024-03-12T19:18:21.436Z,97999.03
2024-03-12T19:20:52.684Z,98004.41
2024-03-12T19:23:21.946Z,97995.81
2024-03-12T19:25:51.944Z,98009.31
2024-03-12T19:28:20.476Z,97999.66
2024-03-12T19:30:51.529Z,97998.06
2024-03-12T19:33:20.677Z,97994.44
2024-03-12T19:35:51.825Z,97994.81
2024-03-12T19:38:21.412Z,97993.00
2024-03-12T19:40:54.006Z,97989.59
2024-03-12T19:43:25.268Z,97993.22
2024-03-12T19:45:55.065Z,97989.84
2024-03-12T19:48:27.264Z,97988.81
2024-03-12T19:50:56.962Z,97985.25
2024-03-12T19:53:25.385Z,97983.91
2024-03-12T19:55:55.277Z,97981.31
2024-03-12T19:58:24.315Z,97979.84
2024-03-12T20:00:54.406Z,97974.25
2024-03-12T20:03:23.691Z,97964.66
2024-03-12T20:05:52.493Z,97966.91
2024-03-12T20:08:20.867Z,97968.38
2024-03-12T20:10:49.333Z,97963.97
2024-03-12T20:13:19.516Z,97968.19
2024-03-12T20:15:48.489Z,97971.50
2024-03-12T20:18:16.978Z,97971.50
2024-03-12T20:20:45.740Z,97965.31
2024-03-12T20:23:14.275Z,97959.44
2024-03-12T20:25:42.771Z,97968.88
2024-03-12T20:28:13.312Z,97974.09
2024-03-12T20:30:43.789Z,97964.94
2024-03-12T20:33:14.363Z,97971.44
2024-03-12T20:35:44.305Z,97971.44
2024-03-12T20:38:15.143Z,97963.44
2024-03-12T20:40:44.196Z,97961.47
2024-03-12T20:43:13.021Z,97957.06
2024-03-12T20:45:46.442Z,97952.19
2024-03-12T20:48:15.090Z,97952.38
2024-03-12T20:50:43.975Z,97951.22
2024-03-12T20:53:12.426Z,97945.81
2024-03-12T20:55:41.273Z,97943.38
2024-03-12T20:58:09.836Z,97938.38
2024-03-12T21:00:39.136Z,97934.94
2024-03-12T21:03:10.887Z,97930.09
2024-03-12T21:05:40.571Z,97925.13
2024-03-12T21:08:09.265Z,97932.78
2024-03-12T21:10:39.338Z,97925.22
2024-03-12T21:13:07.993Z,97923.41
2024-03-12T21:15:36.426Z,97921.47
2024-03-12T21:18:07.189Z,97918.03
2024-03-12T21:20:37.107Z,97918.75
2024-03-12T21:23:09.087Z,97918.41
2024-03-12T21:25:37.536Z,97916.59
2024-03-12T21:28:06.987Z,97914.00
2024-03-12T21:30:37.383Z,97908.78
2024-03-12T21:33:06.249Z,97897.34
2024-03-12T21:35:36.657Z,97895.63
2024-03-12T21:38:05.531Z,97897.44
2024-03-12T21:40:36.200Z,97886.84
2024-03-12T21:43:05.578Z,97894.28
2024-03-12T21:45:36.745Z,97897.25
2024-03-12T21:48:08.736Z,97892.25
2024-03-12T21:50:39.868Z,97891.69
2024-03-12T21:53:09.215Z,97892.03
2024-03-12T21:55:40.317Z,97890.63
2024-03-12T21:58:10.230Z,97891.44
2024-03-12T22:00:38.800Z,97890.41
2024-03-12T22:03:08.612Z,97888.81
2024-03-12T22:05:38.461Z,97886.84
2024-03-12T22:08:08.123Z,97882.97
2024-03-12T22:10:36.983Z,97884.44
2024-03-12T22:13:06.101Z,97892.25
2024-03-12T22:15:34.756Z,97890.16
2024-03-12T22:18:03.208Z,97894.75
2024-03-12T22:20:31.731Z,97893.38
2024-03-12T22:23:01.555Z,97893.38
2024-03-12T22:25:30.792Z,97896.63
2024-03-12T22:28:00.784Z,97889.19
2024-03-12T22:30:29.373Z,97887.19
2024-03-12T22:32:57.857Z,97894.03
2024-03-12T22:35:26.334Z,97885.03
2024-03-12T22:37:57.020Z,97893.47
2024-03-12T22:40:27.678Z,97889.44
2024-03-12T22:42:56.833Z,97882.44
2024-03-12T22:45:25.802Z,97875.78
2024-03-12T22:47:54.654Z,97867.31
2024-03-12T22:50:24.469Z,97864.56
2024-03-12T22:52:56.973Z,97862.13
2024-03-12T22:55:29.861Z,97875.16
2024-03-12T22:57:59.013Z,97865.53
2024-03-12T23:00:46.369Z,97863.13
2024-03-12T23:03:14.462Z,97851.69
2024-03-12T23:05:45.050Z,97852.34
2024-03-12T23:08:15.559Z,97855.75
2024-03-12T23:10:46.117Z,97857.56
2024-03-12T23:13:17.423Z,97852.34
2024-03-12T23:15:46.421Z,97854.41
2024-03-12T23:18:14.946Z,97857.38
2024-03-12T23:20:46.022Z,97850.00
2024-03-12T23:23:14.848Z,97851.44
2024-03-12T23:25:45.278Z,97855.47
2024-03-12T23:28:16.652Z,97842.44
2024-03-12T23:30:45.040Z,97850.63
2024-03-12T23:33:14.804Z,97848.19
2024-03-12T23:35:43.828Z,97849.19
2024-03-12T23:38:13.363Z,97845.41
2024-03-12T23:40:42.203Z,97841.72
2024-03-12T23:43:12.835Z,97834.59
2024-03-12T23:45:42.730Z,97831.94
2024-03-12T23:48:13.823Z,97845.25
2024-03-12T23:50:43.504Z,97843.88
2024-03-12T23:53:11.886Z,97834.47
2024-03-12T23:55:40.528Z,97843.25
2024-03-12T23:58:09.518Z,97837.22
